Terminal Aerodrome Forecast
Issued by NWS

Home | Current Version | Previous Version | Text Only | Print | Product List | Glossary On
Versions: 1 2 3 4 5 6 7 8 9 10 11 12 13 14
000
FTUS45 KRIW 231723
TAFCPR
TAF
KCPR 231723Z 2318/2418 03010KT P6SM SKC
     FM232000 28007KT P6SM FEW100
     FM240100 02011KT P6SM SKC
     FM241700 15007KT P6SM FEW100=

USA.gov is the U.S. government's official web portal to all federal, state and local government web resources and services.